CheckWX is a tool to help pilots better visualize weather data.  It is not intended as a substitute for an official pre-flight weather briefing.

14:19:00 UTC

EGGD TAF
Bristol International Airport
Bristol, United Kingdom
TAF EGGD 291102Z 2912/3012 27013KT 9999 SCT025 BECMG 2915/2918 21010KT PROB30 TEMPO 2915/2920 8000 -RA BKN012 BECMG 3001/3004 3000 BR BKN004 BECMG 3004/3007 15008KT 0200 -DZ FG BKN000

Jan-29@
12:00 UTC

Jan-29 @ 12:00 UTC

Jan-29@
15:00 UTC

Jan-29 @ 15:00 UTC

TAF EGGD 291102Z 2912/3012 27013KT 9999 SCT025
Wind
  • 270° at 13 KTS
Cloud Levels
  • Scattered at 2,500' AGL

Jan-29@
15:00 UTC

Jan-29 @ 15:00 UTC

Jan-29@
20:00 UTC

Jan-29 @ 20:00 UTC

PROB30 TEMPO 2915/2920 8000 -RA BKN012

Temporary - 30% Likelihood

Temporary - 30% Likelihood during this time.

Conditions
Light Rain
Cloud Levels
  • Broken at 1,200' AGL

Jan-29@
15:00 UTC

Jan-29 @ 15:00 UTC

Jan-30@
01:00 UTC

Jan-30 @ 01:00 UTC

BECMG 2915/2918 21010KT

Becoming

Becoming Conditions expected by Wed, Jan 29, 2020 @ 18:00 UTC

Wind
  • 210° at 10 KTS
Cloud Levels
  • Scattered at 2,500' AGL

Jan-30@
01:00 UTC

Jan-30 @ 01:00 UTC

Jan-30@
04:00 UTC

Jan-30 @ 04:00 UTC

BECMG 3001/3004 3000 BR BKN004

Becoming

Becoming Conditions expected by Thu, Jan 30, 2020 @ 04:00 UTC

Wind
  • 210° at 10 KTS
Conditions
Mist
Cloud Levels
  • Broken at 400' AGL

Jan-30@
04:00 UTC

Jan-30 @ 04:00 UTC

Jan-30@
12:00 UTC

Jan-30 @ 12:00 UTC

BECMG 3004/3007 15008KT 0200 -DZ FG BKN000

Becoming

Becoming Conditions expected by Thu, Jan 30, 2020 @ 07:00 UTC

Wind
  • 150° at 8 KTS
Conditions
Light Drizzle, Fog
Cloud Levels
  • Broken